Flight Track Log - Related Links

Times and Time Zones

All times are in EDT time to prevent confusion due to time zone crossing. See the DLH917 flight status page for this flight to view local times or setup timezone preferences in your user account.

Time Position Orientation Groundspeed Altitude Reporting Facility
EDT Latitude Longitude Course Direction KTS MPH feet Rate Location/Type
Sun 02:26:00 PM 51.4217 0.0010 101° East  Level Estimated
Sun 02:27:00 PM 51.4027 0.1548 101° East  Level Estimated
Sun 02:28:00 PM 51.3836 0.3086 101° East  Level Estimated
Sun 02:29:00 PM 51.3642 0.4622 101° East  Level Estimated
Sun 02:30:00 PM 51.3446 0.6157 101° East  Level Estimated
Sun 02:31:00 PM 51.3248 0.7690 102° East  Level Estimated
Sun 02:32:00 PM 51.3048 0.9222 102° East  Level Estimated
Sun 02:33:00 PM 51.2846 1.0753 102° East  Level Estimated
Sun 02:34:00 PM 51.2642 1.2283 102° East  Level Estimated
Sun 02:35:00 PM 51.2436 1.3811 102° East  Level Estimated
Sun 02:36:00 PM 51.2228 1.5337 102° East  Level Estimated
Sun 02:37:00 PM 51.2019 1.6863 102° East  Level Estimated
Sun 02:38:00 PM 51.1807 1.8386 102° East  Level Estimated
Sun 02:39:00 PM 51.1593 1.9909 103° East  Level Estimated
Sun 02:40:00 PM 51.1377 2.1430 103° East  Level Estimated
Sun 02:41:00 PM 51.1159 2.2950 103° East  Level Estimated
Sun 02:42:00 PM 51.0939 2.4468 103° East  Level Estimated
Sun 02:43:00 PM 51.0718 2.5985 103° East  Level Estimated
Sun 02:44:00 PM 51.0494 2.7500 103° East  Level Estimated
Sun 02:45:00 PM 51.0268 2.9014 103° East  Level Estimated
Sun 02:46:00 PM 51.0041 3.0526 103° East  Level Estimated
Sun 02:47:00 PM 50.9811 3.2037 104° East  Level Estimated
Sun 02:48:00 PM 50.9580 3.3547 104° East  Level Estimated
Sun 02:49:00 PM 50.9346 3.5055 104° East  Level Estimated
Sun 02:50:00 PM 50.9111 3.6561 104° East  Level Estimated
Sun 02:51:00 PM 50.8873 3.8066 104° East  Level Estimated
Sun 02:52:00 PM 50.8634 3.9569 104° East  Level Estimated
Sun 02:53:00 PM 50.8393 4.1071 104° East  Level Estimated
Sun 02:54:00 PM 50.8150 4.2571 104° East  Level Estimated
Sun 02:55:00 PM 50.7905 4.4070 104° East  Level Estimated
Sun 02:56:00 PM 50.7658 4.5567 105° East  Level Estimated
Sun 02:57:00 PM 50.7409 4.7062 105° East  Level Estimated
Sun 02:58:00 PM 50.7158 4.8556 105° East  Level Estimated
Sun 02:59:00 PM 50.6905 5.0048 105° East  Level Estimated
Sun 03:00:00 PM 50.6651 5.1539 105° East  Level Estimated
Sun 03:01:00 PM 50.6394 5.3028 105° East  Level Estimated
Sun 03:02:00 PM 50.6136 5.4515 105° East  Level Estimated
Sun 03:03:00 PM 50.5876 5.6001 105° East  Level Estimated
Sun 03:04:00 PM 50.5613 5.7485 105° East  Level Estimated
Sun 03:05:00 PM 50.5349 5.8968 106° East  Level Estimated
Sun 03:06:00 PM 50.5083 6.0449 106° East  Level Estimated
Sun 03:07:00 PM 50.4816 6.1928 106° East  Level Estimated
Sun 03:08:00 PM 50.4546 6.3405 106° East  Level Estimated
Sun 03:09:00 PM 50.4274 6.4881 106° East  Level Estimated
Sun 03:10:00 PM 50.4001 6.6355 106° East  Level Estimated
Sun 03:11:00 PM 50.3726 6.7827 106° East  Level Estimated
Sun 03:12:00 PM 50.3449 6.9298 106° East  Level Estimated
Sun 03:13:00 PM 50.3170 7.0767 107° East  Level Estimated
Sun 03:14:00 PM 50.2889 7.2234 107° East  Level Estimated
Sun 03:15:00 PM 50.2606 7.3699 107° East  Level Estimated
Sun 03:16:00 PM 50.2322 7.5163 107° East  Level Estimated
Sun 03:17:00 PM 50.2035 7.6625 107° East  Level Estimated
Sun 03:18:00 PM 50.1747 7.8085 107° East  Level Estimated
Sun 03:19:00 PM 50.1457 7.9544 107° East  Level Estimated
Sun 03:20:00 PM 50.1165 8.1000 107° East  Level Estimated
Sun 03:21:00 PM 50.0872 8.2455 107° East  Level Estimated
Sun 03:22:00 PM 50.0576 8.3908 108° East  Level Estimated
Sun 03:23:00 PM 50.0279 8.5360 108° East  Level Estimated
Sun 03:24:00 PM 50.0264 8.5431 108° East  Level Estimated
Sun 03:25:00 PM 50.0264 8.5431 73° East  Level Estimated
Sun 03:26:00 PM 50.0264 8.5431 73° East  Level Estimated
Sun 03:27:00 PM 50.0264 8.5431 73° East  Level Estimated
Sun 03:28:00 PM 50.0264 8.5431 73° East  Level Estimated
Sun 03:29:00 PM 50.0264 8.5431 73° East  Level Estimated
Sun 03:30:00 PM 50.0264 8.5431 73° East  Level Estimated
Sun 03:31:00 PM 50.0264 8.5431 73° East  Level Estimated
Sun 03:32:00 PM 50.0264 8.5431 73° East  Level Estimated

Login

Don't have an account? Register now (free) for customized features, flight alerts, and more!